sensor_id;sensor_type;location;lat;lon;timestamp;pressure;altitude;pressure_sealevel;temperature;humidity
8160;BME280;27404;52.398;9.646;2023-02-13T00:00:32;103099.63;;;5.61;100.00
8160;BME280;27404;52.398;9.646;2023-02-13T00:02:58;103101.34;;;5.62;100.00
8160;BME280;27404;52.398;9.646;2023-02-13T00:05:23;103103.88;;;5.63;100.00
8160;BME280;27404;52.398;9.646;2023-02-13T00:07:49;103094.06;;;5.62;100.00
8160;BME280;27404;52.398;9.646;2023-02-13T00:10:14;103103.88;;;5.63;100.00
8160;BME280;27404;52.398;9.646;2023-02-13T00:12:40;103101.03;;;5.65;100.00
8160;BME280;27404;52.398;9.646;2023-02-13T00:15:06;103093.91;;;5.64;100.00
8160;BME280;27404;52.398;9.646;2023-02-13T00:17:32;103096.63;;;5.64;100.00
8160;BME280;27404;52.398;9.646;2023-02-13T00:19:58;103088.47;;;5.64;100.00
8160;BME280;27404;52.398;9.646;2023-02-13T00:22:23;103095.63;;;5.65;100.00
8160;BME280;27404;52.398;9.646;2023-02-13T00:24:49;103087.59;;;5.63;100.00
8160;BME280;27404;52.398;9.646;2023-02-13T00:27:14;103089.47;;;5.63;100.00
8160;BME280;27404;52.398;9.646;2023-02-13T00:29:40;103091.34;;;5.62;100.00
8160;BME280;27404;52.398;9.646;2023-02-13T00:32:05;103080.50;;;5.62;100.00
8160;BME280;27404;52.398;9.646;2023-02-13T00:34:31;103090.47;;;5.62;100.00
8160;BME280;27404;52.398;9.646;2023-02-13T00:36:56;103095.91;;;5.62;100.00
8160;BME280;27404;52.398;9.646;2023-02-13T00:39:22;103085.03;;;5.62;100.00
8160;BME280;27404;52.398;9.646;2023-02-13T00:41:47;103086.91;;;5.61;100.00
8160;BME280;27404;52.398;9.646;2023-02-13T00:44:12;103090.47;;;5.62;100.00
8160;BME280;27404;52.398;9.646;2023-02-13T00:46:38;103096.78;;;5.62;100.00
8160;BME280;27404;52.398;9.646;2023-02-13T00:49:04;103096.78;;;5.62;100.00
8160;BME280;27404;52.398;9.646;2023-02-13T00:51:30;103093.47;;;5.59;100.00
8160;BME280;27404;52.398;9.646;2023-02-13T00:53:56;103085.31;;;5.59;100.00
8160;BME280;27404;52.398;9.646;2023-02-13T00:56:21;103083.50;;;5.59;100.00
8160;BME280;27404;52.398;9.646;2023-02-13T00:58:47;103089.91;;;5.58;100.00
8160;BME280;27404;52.398;9.646;2023-02-13T01:01:12;103085.50;;;5.57;100.00
8160;BME280;27404;52.398;9.646;2023-02-13T01:03:38;103091.91;;;5.56;100.00
8160;BME280;27404;52.398;9.646;2023-02-13T01:06:04;103088.31;;;5.56;100.00
8160;BME280;27404;52.398;9.646;2023-02-13T01:08:29;103082.06;;;5.55;100.00
8160;BME280;27404;52.398;9.646;2023-02-13T01:10:56;103083.06;;;5.54;100.00
8160;BME280;27404;52.398;9.646;2023-02-13T01:13:21;103075.91;;;5.53;100.00
8160;BME280;27404;52.398;9.646;2023-02-13T01:15:47;103079.34;;;5.55;100.00
8160;BME280;27404;52.398;9.646;2023-02-13T01:18:14;103081.19;;;5.55;100.00
8160;BME280;27404;52.398;9.646;2023-02-13T01:20:41;103078.47;;;5.55;100.00
8160;BME280;27404;52.398;9.646;2023-02-13T01:23:08;103074.63;;;5.57;100.00
8160;BME280;27404;52.398;9.646;2023-02-13T01:25:33;103069.22;;;5.57;100.00
8160;BME280;27404;52.398;9.646;2023-02-13T01:27:59;103073.75;;;5.57;100.00
8160;BME280;27404;52.398;9.646;2023-02-13T01:30:24;103065.63;;;5.57;100.00
8160;BME280;27404;52.398;9.646;2023-02-13T01:32:50;103067.63;;;5.55;100.00
8160;BME280;27404;52.398;9.646;2023-02-13T01:35:15;103071.34;;;5.54;100.00
8160;BME280;27404;52.398;9.646;2023-02-13T01:37:41;103058.75;;;5.53;100.00
8160;BME280;27404;52.398;9.646;2023-02-13T01:40:10;103056.75;;;5.55;100.00
8160;BME280;27404;52.398;9.646;2023-02-13T01:42:36;103058.75;;;5.53;100.00
8160;BME280;27404;52.398;9.646;2023-02-13T01:45:18;103060.47;;;5.54;100.00
8160;BME280;27404;52.398;9.646;2023-02-13T01:47:58;103046.19;;;5.52;100.00
8160;BME280;27404;52.398;9.646;2023-02-13T01:50:45;103061.63;;;5.51;100.00
8160;BME280;27404;52.398;9.646;2023-02-13T01:55:55;103050.50;;;5.54;100.00
8160;BME280;27404;52.398;9.646;2023-02-13T01:58:27;103058.75;;;5.53;100.00
8160;BME280;27404;52.398;9.646;2023-02-13T02:00:54;103052.50;;;5.52;100.00
8160;BME280;27404;52.398;9.646;2023-02-13T02:03:25;103048.91;;;5.52;100.00
8160;BME280;27404;52.398;9.646;2023-02-13T02:05:53;103047.19;;;5.51;100.00
8160;BME280;27404;52.398;9.646;2023-02-13T02:08:21;103049.91;;;5.51;100.00
8160;BME280;27404;52.398;9.646;2023-02-13T02:10:47;103043.75;;;5.48;100.00
8160;BME280;27404;52.398;9.646;2023-02-13T02:13:15;103045.63;;;5.48;100.00
8160;BME280;27404;52.398;9.646;2023-02-13T02:15:43;103036.50;;;5.49;100.00
8160;BME280;27404;52.398;9.646;2023-02-13T02:18:14;103045.63;;;5.48;100.00
8160;BME280;27404;52.398;9.646;2023-02-13T02:26:43;103040.22;;;5.48;100.00
8160;BME280;27404;52.398;9.646;2023-02-13T02:32:21;103029.47;;;5.46;100.00
8160;BME280;27404;52.398;9.646;2023-02-13T02:40:42;103028.94;;;5.43;100.00
8160;BME280;27404;52.398;9.646;2023-02-13T02:49:13;103023.34;;;5.44;100.00
8160;BME280;27404;52.398;9.646;2023-02-13T02:52:06;103018.06;;;5.43;100.00
8160;BME280;27404;52.398;9.646;2023-02-13T02:55:34;103015.38;;;5.43;100.00
8160;BME280;27404;52.398;9.646;2023-02-13T03:00:54;103018.91;;;5.43;100.00
8160;BME280;27404;52.398;9.646;2023-02-13T03:03:39;103010.94;;;5.42;100.00
8160;BME280;27404;52.398;9.646;2023-02-13T03:06:33;103014.50;;;5.42;100.00
8160;BME280;27404;52.398;9.646;2023-02-13T03:09:04;103012.78;;;5.41;100.00
8160;BME280;27404;52.398;9.646;2023-02-13T03:11:50;103017.38;;;5.41;100.00
8160;BME280;27404;52.398;9.646;2023-02-13T03:14:36;103009.22;;;5.41;100.00
8160;BME280;27404;52.398;9.646;2023-02-13T03:17:02;103010.94;;;5.42;100.00
8160;BME280;27404;52.398;9.646;2023-02-13T03:19:57;103012.94;;;5.40;100.00
8160;BME280;27404;52.398;9.646;2023-02-13T03:22:53;103007.50;;;5.40;100.00
8160;BME280;27404;52.398;9.646;2023-02-13T03:28:17;103015.66;;;5.40;100.00
8160;BME280;27404;52.398;9.646;2023-02-13T03:31:23;103014.50;;;5.42;100.00
8160;BME280;27404;52.398;9.646;2023-02-13T03:34:01;103020.91;;;5.41;100.00
8160;BME280;27404;52.398;9.646;2023-02-13T03:36:47;103025.63;;;5.39;100.00
8160;BME280;27404;52.398;9.646;2023-02-13T03:39:43;103019.34;;;5.39;100.00
8160;BME280;27404;52.398;9.646;2023-02-13T03:42:22;103013.06;;;5.38;100.00
8160;BME280;27404;52.398;9.646;2023-02-13T03:44:58;103016.66;;;5.39;100.00
8160;BME280;27404;52.398;9.646;2023-02-13T03:47:44;103015.78;;;5.38;100.00
8160;BME280;27404;52.398;9.646;2023-02-13T03:50:12;103012.22;;;5.38;100.00
8160;BME280;27404;52.398;9.646;2023-02-13T03:52:49;103025.63;;;5.39;100.00
8160;BME280;27404;52.398;9.646;2023-02-13T03:55:22;103018.47;;;5.38;100.00
8160;BME280;27404;52.398;9.646;2023-02-13T03:58:12;103024.78;;;5.39;100.00
8160;BME280;27404;52.398;9.646;2023-02-13T04:00:59;103023.06;;;5.38;100.00
8160;BME280;27404;52.398;9.646;2023-02-13T04:03:31;103021.19;;;5.38;100.00
8160;BME280;27404;52.398;9.646;2023-02-13T04:06:20;103019.47;;;5.37;100.00
8160;BME280;27404;52.398;9.646;2023-02-13T04:08:48;103022.19;;;5.37;100.00
8160;BME280;27404;52.398;9.646;2023-02-13T04:11:17;103021.19;;;5.38;100.00
8160;BME280;27404;52.398;9.646;2023-02-13T04:13:56;103018.47;;;5.38;100.00
8160;BME280;27404;52.398;9.646;2023-02-13T04:16:32;103023.91;;;5.38;100.00
8160;BME280;27404;52.398;9.646;2023-02-13T04:19:00;103016.66;;;5.39;100.00
8160;BME280;27404;52.398;9.646;2023-02-13T04:21:26;103017.66;;;5.38;100.00
8160;BME280;27404;52.398;9.646;2023-02-13T04:23:52;103019.34;;;5.39;100.00
8160;BME280;27404;52.398;9.646;2023-02-13T04:26:20;103015.66;;;5.40;100.00
8160;BME280;27404;52.398;9.646;2023-02-13T04:28:46;103019.34;;;5.39;100.00
8160;BME280;27404;52.398;9.646;2023-02-13T04:31:12;103011.06;;;5.40;100.00
8160;BME280;27404;52.398;9.646;2023-02-13T04:33:37;103009.34;;;5.39;100.00
8160;BME280;27404;52.398;9.646;2023-02-13T04:36:03;103011.06;;;5.40;100.00
8160;BME280;27404;52.398;9.646;2023-02-13T04:38:28;103012.78;;;5.41;100.00
8160;BME280;27404;52.398;9.646;2023-02-13T04:40:53;103008.06;;;5.43;100.00
8160;BME280;27404;52.398;9.646;2023-02-13T04:43:19;103001.81;;;5.43;100.00
8160;BME280;27404;52.398;9.646;2023-02-13T04:45:48;103001.09;;;5.41;100.00
8160;BME280;27404;52.398;9.646;2023-02-13T04:48:14;103000.09;;;5.42;100.00
8160;BME280;27404;52.398;9.646;2023-02-13T04:50:40;103002.09;;;5.40;100.00
8160;BME280;27404;52.398;9.646;2023-02-13T04:53:05;103002.94;;;5.40;100.00
8160;BME280;27404;52.398;9.646;2023-02-13T04:55:31;103002.94;;;5.40;100.00
8160;BME280;27404;52.398;9.646;2023-02-13T04:57:56;103004.91;;;5.38;100.00
8160;BME280;27404;52.398;9.646;2023-02-13T05:00:24;103001.94;;;5.41;100.00
8160;BME280;27404;52.398;9.646;2023-02-13T05:02:50;102997.66;;;5.39;100.00
8160;BME280;27404;52.398;9.646;2023-02-13T05:05:16;103006.63;;;5.39;100.00
8160;BME280;27404;52.398;9.646;2023-02-13T05:07:42;103003.94;;;5.39;100.00
8160;BME280;27404;52.398;9.646;2023-02-13T05:10:09;103007.50;;;5.40;100.00
8160;BME280;27404;52.398;9.646;2023-02-13T05:12:35;103003.94;;;5.39;100.00
8160;BME280;27404;52.398;9.646;2023-02-13T05:15:00;103010.22;;;5.40;100.00
8160;BME280;27404;52.398;9.646;2023-02-13T05:17:25;103015.78;;;5.38;100.00
8160;BME280;27404;52.398;9.646;2023-02-13T05:19:51;103003.09;;;5.39;100.00
8160;BME280;27404;52.398;9.646;2023-02-13T05:22:16;103017.38;;;5.41;100.00
8160;BME280;27404;52.398;9.646;2023-02-13T05:25:00;103017.38;;;5.41;100.00
8160;BME280;27404;52.398;9.646;2023-02-13T05:27:26;103023.63;;;5.41;100.00
8160;BME280;27404;52.398;9.646;2023-02-13T05:29:51;103021.06;;;5.40;100.00
8160;BME280;27404;52.398;9.646;2023-02-13T05:32:16;103018.34;;;5.40;100.00
8160;BME280;27404;52.398;9.646;2023-02-13T05:34:42;103012.22;;;5.38;100.00
8160;BME280;27404;52.398;9.646;2023-02-13T05:37:07;103019.47;;;5.37;100.00
8160;BME280;27404;52.398;9.646;2023-02-13T05:39:33;103018.47;;;5.38;100.00
8160;BME280;27404;52.398;9.646;2023-02-13T05:41:58;103022.06;;;5.39;100.00
8160;BME280;27404;52.398;9.646;2023-02-13T05:44:24;103018.47;;;5.38;100.00
8160;BME280;27404;52.398;9.646;2023-02-13T05:46:49;103024.63;;;5.40;100.00
8160;BME280;27404;52.398;9.646;2023-02-13T05:49:17;103022.78;;;5.41;100.00
8160;BME280;27404;52.398;9.646;2023-02-13T05:51:43;103020.91;;;5.41;100.00
8160;BME280;27404;52.398;9.646;2023-02-13T05:54:08;103022.91;;;5.39;100.00
8160;BME280;27404;52.398;9.646;2023-02-13T05:56:34;103022.91;;;5.39;100.00
8160;BME280;27404;52.398;9.646;2023-02-13T05:58:59;103019.34;;;5.39;100.00
8160;BME280;27404;52.398;9.646;2023-02-13T06:01:24;103022.06;;;5.39;100.00
8160;BME280;27404;52.398;9.646;2023-02-13T06:03:50;103023.91;;;5.38;100.00
8160;BME280;27404;52.398;9.646;2023-02-13T06:06:16;103017.66;;;5.38;100.00
8160;BME280;27404;52.398;9.646;2023-02-13T06:08:42;103025.78;;;5.38;100.00
8160;BME280;27404;52.398;9.646;2023-02-13T06:11:08;103026.63;;;5.38;100.00
8160;BME280;27404;52.398;9.646;2023-02-13T06:13:33;103027.50;;;5.39;100.00
8160;BME280;27404;52.398;9.646;2023-02-13T06:15:59;103026.78;;;5.37;100.00
8160;BME280;27404;52.398;9.646;2023-02-13T06:18:24;103032.91;;;5.39;100.00
8160;BME280;27404;52.398;9.646;2023-02-13T06:20:50;103037.63;;;5.37;100.00
8160;BME280;27404;52.398;9.646;2023-02-13T06:23:15;103040.47;;;5.35;100.00
8160;BME280;27404;52.398;9.646;2023-02-13T06:25:41;103043.19;;;5.35;100.00
8160;BME280;27404;52.398;9.646;2023-02-13T06:28:07;103040.63;;;5.33;100.00
8160;BME280;27404;52.398;9.646;2023-02-13T06:30:32;103038.19;;;5.30;100.00
8160;BME280;27404;52.398;9.646;2023-02-13T06:32:58;103040.63;;;5.33;100.00
8160;BME280;27404;52.398;9.646;2023-02-13T06:35:24;103048.88;;;5.32;100.00
8160;BME280;27404;52.398;9.646;2023-02-13T06:37:50;103047.16;;;5.31;100.00
8160;BME280;27404;52.398;9.646;2023-02-13T06:40:15;103046.16;;;5.32;100.00
8160;BME280;27404;52.398;9.646;2023-02-13T06:42:42;103053.75;;;5.38;100.00
8160;BME280;27404;52.398;9.646;2023-02-13T06:45:09;103053.03;;;5.36;100.00
8160;BME280;27404;52.398;9.646;2023-02-13T06:47:34;103052.19;;;5.36;100.00
8160;BME280;27404;52.398;9.646;2023-02-13T06:50:00;103057.63;;;5.36;100.00
8160;BME280;27404;52.398;9.646;2023-02-13T06:52:26;103059.34;;;5.37;100.00
8160;BME280;27404;52.398;9.646;2023-02-13T06:54:51;103061.03;;;5.38;100.00
8160;BME280;27404;52.398;9.646;2023-02-13T06:57:16;103058.34;;;5.38;100.00
8160;BME280;27404;52.398;9.646;2023-02-13T06:59:42;103059.03;;;5.40;100.00
8160;BME280;27404;52.398;9.646;2023-02-13T07:02:12;103054.63;;;5.39;100.00
8160;BME280;27404;52.398;9.646;2023-02-13T07:04:38;103060.88;;;5.39;100.00
8160;BME280;27404;52.398;9.646;2023-02-13T07:07:04;103059.75;;;5.42;100.00
8160;BME280;27404;52.398;9.646;2023-02-13T07:09:30;103064.59;;;5.38;100.00
8160;BME280;27404;52.398;9.646;2023-02-13T07:11:56;103063.91;;;5.46;100.00
8160;BME280;27404;52.398;9.646;2023-02-13T07:14:22;103065.75;;;5.45;100.00
8160;BME280;27404;52.398;9.646;2023-02-13T07:16:47;103055.91;;;5.44;100.00
8160;BME280;27404;52.398;9.646;2023-02-13T07:19:13;103058.22;;;5.49;100.00
8160;BME280;27404;52.398;9.646;2023-02-13T07:21:38;103064.63;;;5.48;100.00
8160;BME280;27404;52.398;9.646;2023-02-13T07:24:04;103071.59;;;5.51;100.00
8160;BME280;27404;52.398;9.646;2023-02-13T07:26:29;103066.91;;;5.53;100.00
8160;BME280;27404;52.398;9.646;2023-02-13T07:28:55;103076.75;;;5.54;100.00
8160;BME280;27404;52.398;9.646;2023-02-13T07:31:20;103072.47;;;5.51;100.00
8160;BME280;27404;52.398;9.646;2023-02-13T07:33:49;103075.75;;;5.55;100.00
8160;BME280;27404;52.398;9.646;2023-02-13T07:36:15;103076.47;;;5.57;100.00
8160;BME280;27404;52.398;9.646;2023-02-13T07:38:40;103073.47;;;5.60;100.00
8160;BME280;27404;52.398;9.646;2023-02-13T07:41:06;103083.34;;;5.61;100.00
8160;BME280;27404;52.398;9.646;2023-02-13T07:43:31;103073.19;;;5.63;100.00
8160;BME280;27404;52.398;9.646;2023-02-13T07:45:59;103079.91;;;5.69;100.00
8160;BME280;27404;52.398;9.646;2023-02-13T07:48:24;103082.47;;;5.70;100.00
8160;BME280;27404;52.398;9.646;2023-02-13T07:50:54;103086.75;;;5.73;100.00
8160;BME280;27404;52.398;9.646;2023-02-13T07:53:19;103083.63;;;5.77;100.00
8160;BME280;27404;52.398;9.646;2023-02-13T07:55:45;103084.19;;;5.81;100.00
8160;BME280;27404;52.398;9.646;2023-02-13T07:58:10;103083.50;;;5.89;100.00
8160;BME280;27404;52.398;9.646;2023-02-13T08:00:36;103079.63;;;5.91;100.00
8160;BME280;27404;52.398;9.646;2023-02-13T08:03:01;103084.47;;;5.98;100.00
8160;BME280;27404;52.398;9.646;2023-02-13T08:05:28;103085.63;;;5.95;100.00
8160;BME280;27404;52.398;9.646;2023-02-13T08:07:55;103079.31;;;5.95;100.00
8160;BME280;27404;52.398;9.646;2023-02-13T08:10:20;103084.47;;;5.98;100.00
8160;BME280;27404;52.398;9.646;2023-02-13T08:13:05;103085.63;;;6.05;100.00
8160;BME280;27404;52.398;9.646;2023-02-13T08:15:31;103089.91;;;6.07;100.00
8160;BME280;27404;52.398;9.646;2023-02-13T08:17:56;103089.47;;;6.02;100.00
8160;BME280;27404;52.398;9.646;2023-02-13T08:20:22;103092.34;;;6.11;100.00
8160;BME280;27404;52.398;9.646;2023-02-13T08:22:50;103095.06;;;6.20;100.00
8160;BME280;27404;52.398;9.646;2023-02-13T08:25:16;103092.19;;;6.22;100.00
8160;BME280;27404;52.398;9.646;2023-02-13T08:27:41;103089.19;;;6.25;100.00
8160;BME280;27404;52.398;9.646;2023-02-13T08:30:08;103101.19;;;6.22;100.00
8160;BME280;27404;52.398;9.646;2023-02-13T08:32:34;103097.91;;;6.29;100.00
8160;BME280;27404;52.398;9.646;2023-02-13T08:34:59;103097.72;;;6.40;100.00
8160;BME280;27404;52.398;9.646;2023-02-13T08:37:25;103090.72;;;6.37;100.00
8160;BME280;27404;52.398;9.646;2023-02-13T08:39:50;103088.31;;;6.34;100.00
8160;BME280;27404;52.398;9.646;2023-02-13T08:42:16;103096.28;;;6.36;100.00
8160;BME280;27404;52.398;9.646;2023-02-13T08:44:42;103090.56;;;6.39;100.00
8160;BME280;27404;52.398;9.646;2023-02-13T08:47:08;103089.13;;;6.45;100.00
8160;BME280;27404;52.398;9.646;2023-02-13T08:49:33;103103.69;;;6.54;100.00
8160;BME280;27404;52.398;9.646;2023-02-13T08:52:00;103103.97;;;6.60;100.00
8160;BME280;27404;52.398;9.646;2023-02-13T08:54:26;103099.25;;;6.62;100.00
8160;BME280;27404;52.398;9.646;2023-02-13T08:56:52;103099.78;;;6.66;100.00
8160;BME280;27404;52.398;9.646;2023-02-13T08:59:18;103097.91;;;6.76;100.00
8160;BME280;27404;52.398;9.646;2023-02-13T09:01:44;103095.59;;;6.81;100.00
8160;BME280;27404;52.398;9.646;2023-02-13T09:04:09;103100.13;;;6.91;100.00
8160;BME280;27404;52.398;9.646;2023-02-13T09:06:35;103097.94;;;6.94;100.00
8160;BME280;27404;52.398;9.646;2023-02-13T09:09:00;103097.75;;;7.06;100.00
8160;BME280;27404;52.398;9.646;2023-02-13T09:11:26;103101.41;;;7.15;100.00
8160;BME280;27404;52.398;9.646;2023-02-13T09:13:52;103105.25;;;7.22;100.00
8160;BME280;27404;52.398;9.646;2023-02-13T09:16:18;103095.47;;;7.29;100.00
8160;BME280;27404;52.398;9.646;2023-02-13T09:18:46;103091.13;;;7.36;100.00
8160;BME280;27404;52.398;9.646;2023-02-13T09:21:12;103087.78;;;7.24;100.00
8160;BME280;27404;52.398;9.646;2023-02-13T09:23:39;103084.41;;;7.31;100.00
8160;BME280;27404;52.398;9.646;2023-02-13T09:26:14;103085.91;;;7.43;100.00
8160;BME280;27404;52.398;9.646;2023-02-13T09:28:41;103087.50;;;7.64;100.00
8160;BME280;27404;52.398;9.646;2023-02-13T09:31:12;103086.16;;;7.68;100.00
8160;BME280;27404;52.398;9.646;2023-02-13T09:33:40;103084.47;;;7.67;100.00
8160;BME280;27404;52.398;9.646;2023-02-13T09:36:08;103088.91;;;7.68;100.00
8160;BME280;27404;52.398;9.646;2023-02-13T09:38:34;103073.72;;;7.65;100.00
8160;BME280;27404;52.398;9.646;2023-02-13T09:41:03;103087.25;;;7.75;100.00
8160;BME280;27404;52.398;9.646;2023-02-13T09:43:36;103084.00;;;7.90;100.00
8160;BME280;27404;52.398;9.646;2023-02-13T09:46:10;103081.88;;;8.02;100.00
8160;BME280;27404;52.398;9.646;2023-02-13T09:48:39;103078.88;;;8.13;100.00
8160;BME280;27404;52.398;9.646;2023-02-13T09:51:06;103092.81;;;8.10;100.00
8160;BME280;27404;52.398;9.646;2023-02-13T09:53:31;103078.59;;;7.98;100.00
8160;BME280;27404;52.398;9.646;2023-02-13T09:56:20;103085.59;;;8.00;100.00
8160;BME280;27404;52.398;9.646;2023-02-13T09:59:02;103091.16;;;7.91;100.00
8160;BME280;27404;52.398;9.646;2023-02-13T10:01:35;103090.19;;;7.82;100.00
8160;BME280;27404;52.398;9.646;2023-02-13T10:07:22;103096.25;;;8.12;100.00
8160;BME280;27404;52.398;9.646;2023-02-13T10:13:02;103094.59;;;8.19;100.00
8160;BME280;27404;52.398;9.646;2023-02-13T10:15:42;103103.47;;;8.21;100.00
8160;BME280;27404;52.398;9.646;2023-02-13T10:18:17;103098.63;;;8.33;100.00
8160;BME280;27404;52.398;9.646;2023-02-13T10:20:51;103100.31;;;8.34;100.00
8160;BME280;27404;52.398;9.646;2023-02-13T10:23:20;103095.25;;;8.39;100.00
8160;BME280;27404;52.398;9.646;2023-02-13T10:25:57;103095.88;;;8.33;100.00
8160;BME280;27404;52.398;9.646;2023-02-13T10:28:54;103097.25;;;8.55;100.00
8160;BME280;27404;52.398;9.646;2023-02-13T10:31:35;103098.75;;;8.50;100.00
8160;BME280;27404;52.398;9.646;2023-02-13T10:34:05;103100.22;;;8.70;100.00
8160;BME280;27404;52.398;9.646;2023-02-13T10:36:36;103098.78;;;8.84;100.00
8160;BME280;27404;52.398;9.646;2023-02-13T10:41:47;103094.19;;;8.93;100.00
8160;BME280;27404;52.398;9.646;2023-02-13T10:46:59;103099.66;;;8.93;100.00
8160;BME280;27404;52.398;9.646;2023-02-13T10:49:59;103093.28;;;8.76;100.00
8160;BME280;27404;52.398;9.646;2023-02-13T10:52:33;103088.38;;;8.88;100.00
8160;BME280;27404;52.398;9.646;2023-02-13T11:02:58;103098.63;;;8.94;100.00
8160;BME280;27404;52.398;9.646;2023-02-13T11:05:31;103094.06;;;9.03;100.00
8160;BME280;27404;52.398;9.646;2023-02-13T11:07:58;103093.63;;;9.16;100.00
8160;BME280;27404;52.398;9.646;2023-02-13T11:10:25;103092.75;;;9.15;100.00
8160;BME280;27404;52.398;9.646;2023-02-13T11:12:51;103086.25;;;9.16;100.00
8160;BME280;27404;52.398;9.646;2023-02-13T11:17:56;103087.63;;;9.12;100.00
8160;BME280;27404;52.398;9.646;2023-02-13T11:20:25;103076.94;;;9.36;100.00
8160;BME280;27404;52.398;9.646;2023-02-13T11:22:52;103069.47;;;9.54;100.00
8160;BME280;27404;52.398;9.646;2023-02-13T11:25:24;103072.69;;;9.41;100.00
8160;BME280;27404;52.398;9.646;2023-02-13T11:28:03;103074.06;;;9.70;100.00
8160;BME280;27404;52.398;9.646;2023-02-13T11:30:32;103072.56;;;9.92;100.00
8160;BME280;27404;52.398;9.646;2023-02-13T11:33:04;103076.66;;;9.88;100.00
8160;BME280;27404;52.398;9.646;2023-02-13T11:35:35;103073.03;;;9.63;100.00
8160;BME280;27404;52.398;9.646;2023-02-13T11:40:47;103065.22;;;9.60;100.00
8160;BME280;27404;52.398;9.646;2023-02-13T11:43:19;103067.94;;;9.68;100.00
8160;BME280;27404;52.398;9.646;2023-02-13T11:46:02;103062.47;;;9.85;100.00
8160;BME280;27404;52.398;9.646;2023-02-13T11:48:28;103065.41;;;9.91;100.00
8160;BME280;27404;52.398;9.646;2023-02-13T11:50:54;103052.03;;;9.97;100.00
8160;BME280;27404;52.398;9.646;2023-02-13T11:53:24;103054.97;;;9.87;100.00
8160;BME280;27404;52.398;9.646;2023-02-13T11:56:11;103056.16;;;9.68;100.00
8160;BME280;27404;52.398;9.646;2023-02-13T11:58:37;103057.34;;;9.73;100.00
8160;BME280;27404;52.398;9.646;2023-02-13T12:01:25;103059.22;;;9.56;100.00
8160;BME280;27404;52.398;9.646;2023-02-13T12:04:14;103053.59;;;9.91;100.00
8160;BME280;27404;52.398;9.646;2023-02-13T12:06:41;103052.38;;;10.10;100.00
8160;BME280;27404;52.398;9.646;2023-02-13T12:09:21;103053.53;;;10.32;100.00
8160;BME280;27404;52.398;9.646;2023-02-13T12:11:55;103048.94;;;10.33;100.00
8160;BME280;27404;52.398;9.646;2023-02-13T12:14:25;103040.56;;;10.43;100.00
8160;BME280;27404;52.398;9.646;2023-02-13T12:17:04;103046.56;;;9.97;100.00
8160;BME280;27404;52.398;9.646;2023-02-13T12:19:41;103037.69;;;10.03;100.00
8160;BME280;27404;52.398;9.646;2023-02-13T12:22:18;103046.75;;;10.20;100.00
8160;BME280;27404;52.398;9.646;2023-02-13T12:35:30;103027.09;;;9.17;100.00
8160;BME280;27404;52.398;9.646;2023-02-13T12:38:32;103022.66;;;9.16;100.00
8160;BME280;27404;52.398;9.646;2023-02-13T12:49:38;103018.59;;;9.37;100.00
8160;BME280;27404;52.398;9.646;2023-02-13T12:55:22;103019.78;;;9.26;100.00
8160;BME280;27404;52.398;9.646;2023-02-13T13:06:17;103009.38;;;9.21;100.00
8160;BME280;27404;52.398;9.646;2023-02-13T13:11:42;103006.06;;;9.01;100.00
8160;BME280;27404;52.398;9.646;2023-02-13T13:23:07;102997.22;;;9.15;100.00
8160;BME280;27404;52.398;9.646;2023-02-13T13:28:15;102989.94;;;9.24;100.00
8160;BME280;27404;52.398;9.646;2023-02-13T13:30:42;102999.81;;;9.33;100.00
8160;BME280;27404;52.398;9.646;2023-02-13T13:33:22;102986.88;;;9.27;100.00
8160;BME280;27404;52.398;9.646;2023-02-13T13:36:00;102991.13;;;9.30;100.00
8160;BME280;27404;52.398;9.646;2023-02-13T13:41:14;102997.94;;;9.34;100.00
8160;BME280;27404;52.398;9.646;2023-02-13T13:46:40;102986.34;;;9.40;100.00
8160;BME280;27404;52.398;9.646;2023-02-13T13:51:36;102968.59;;;9.28;100.00
8160;BME280;27404;52.398;9.646;2023-02-13T14:07:37;102958.72;;;9.52;100.00
8160;BME280;27404;52.398;9.646;2023-02-13T14:10:04;102963.66;;;9.48;100.00
8160;BME280;27404;52.398;9.646;2023-02-13T14:14:57;102952.91;;;9.46;100.00
8160;BME280;27404;52.398;9.646;2023-02-13T14:20:35;102952.56;;;9.50;100.00
8160;BME280;27404;52.398;9.646;2023-02-13T14:23:52;102953.75;;;9.39;100.00
8160;BME280;27404;52.398;9.646;2023-02-13T14:31:27;102949.31;;;9.13;100.00
8160;BME280;27404;52.398;9.646;2023-02-13T14:36:28;102954.25;;;9.26;100.00
8160;BME280;27404;52.398;9.646;2023-02-13T14:39:01;102958.38;;;9.30;100.00
8160;BME280;27404;52.398;9.646;2023-02-13T14:44:47;102958.03;;;9.33;100.00
8160;BME280;27404;52.398;9.646;2023-02-13T14:47:21;102946.59;;;9.21;100.00
8160;BME280;27404;52.398;9.646;2023-02-13T14:49:49;102949.31;;;9.13;100.00
8160;BME280;27404;52.398;9.646;2023-02-13T14:52:28;102951.00;;;9.06;100.00
8160;BME280;27404;52.398;9.646;2023-02-13T14:55:03;102946.06;;;8.93;100.00
8160;BME280;27404;52.398;9.646;2023-02-13T14:57:39;102943.31;;;8.84;100.00
8160;BME280;27404;52.398;9.646;2023-02-13T15:02:50;102943.31;;;8.84;100.00
8160;BME280;27404;52.398;9.646;2023-02-13T15:05:18;102940.22;;;8.79;100.00
8160;BME280;27404;52.398;9.646;2023-02-13T15:07:54;102941.72;;;8.73;100.00
8160;BME280;27404;52.398;9.646;2023-02-13T15:10:42;102942.25;;;8.69;100.00
8160;BME280;27404;52.398;9.646;2023-02-13T15:13:15;102937.81;;;8.68;100.00
8160;BME280;27404;52.398;9.646;2023-02-13T15:15:42;102941.53;;;8.67;100.00
8160;BME280;27404;52.398;9.646;2023-02-13T15:18:17;102946.47;;;8.63;100.00
8160;BME280;27404;52.398;9.646;2023-02-13T15:20:44;102938.28;;;8.63;100.00
8160;BME280;27404;52.398;9.646;2023-02-13T15:23:36;102942.91;;;8.63;100.00
8160;BME280;27404;52.398;9.646;2023-02-13T15:26:04;102943.22;;;8.59;100.00
8160;BME280;27404;52.398;9.646;2023-02-13T15:28:32;102941.69;;;8.57;100.00
8160;BME280;27404;52.398;9.646;2023-02-13T15:31:00;102936.72;;;8.52;100.00
8160;BME280;27404;52.398;9.646;2023-02-13T15:33:31;102936.34;;;8.47;100.00
8160;BME280;27404;52.398;9.646;2023-02-13T15:36:03;102938.38;;;8.45;100.00